Dubre, Kentucky
Current Conditions -  °F | °C
As of 9:15 AM on Thursday 23 Oct 2014 (Local Time) from KGLW Reporting Station
Clear Clear  
Wind Chill:   Ceiling: Unl
Heat Index:   Visibility: 10mi
Dew Point:   Wind: 3mph
Humidity: 80%   Direction: 70°ENE
Pressure: 30.24"   Gusts: NA
Location:  36.84°N, 85.53°W
Report Text: KGLW 231415Z AUTO 07003KT 10SM CLR 09/06 A3024 RMK AO2 T00900057
Loading
Personal Weather Stations






























Interactive Weather Map
Tropical Storm Tracking
New forecast layout! Learn more

10-Day Weather Forecast

Advertisements
Track Severe Weather on mobile